sensor_id;sensor_type;location;lat;lon;timestamp;P1;durP1;ratioP1;P2;durP2;ratioP2
16029;SDS011;34770;49.272;11.070;2022-08-01T00:01:45;2.63;;;2.38;;
16029;SDS011;34770;49.272;11.070;2022-08-01T00:04:11;2.72;;;2.53;;
16029;SDS011;34770;49.272;11.070;2022-08-01T00:06:36;4.18;;;2.40;;
16029;SDS011;34770;49.272;11.070;2022-08-01T00:09:02;3.70;;;2.50;;
16029;SDS011;34770;49.272;11.070;2022-08-01T00:11:27;2.70;;;2.50;;
16029;SDS011;34770;49.272;11.070;2022-08-01T00:13:52;3.05;;;2.47;;
16029;SDS011;34770;49.272;11.070;2022-08-01T00:16:18;5.95;;;2.45;;
16029;SDS011;34770;49.272;11.070;2022-08-01T00:18:44;4.00;;;2.28;;
16029;SDS011;34770;49.272;11.070;2022-08-01T00:21:09;4.53;;;2.33;;
16029;SDS011;34770;49.272;11.070;2022-08-01T00:23:35;3.72;;;2.38;;
16029;SDS011;34770;49.272;11.070;2022-08-01T00:26:00;2.53;;;2.28;;
16029;SDS011;34770;49.272;11.070;2022-08-01T00:28:26;2.83;;;2.60;;
16029;SDS011;34770;49.272;11.070;2022-08-01T00:30:52;2.60;;;2.30;;
16029;SDS011;34770;49.272;11.070;2022-08-01T00:33:17;3.05;;;2.75;;
16029;SDS011;34770;49.272;11.070;2022-08-01T00:35:43;3.65;;;2.92;;
16029;SDS011;34770;49.272;11.070;2022-08-01T00:38:08;3.50;;;2.60;;
16029;SDS011;34770;49.272;11.070;2022-08-01T00:40:34;2.72;;;2.42;;
16029;SDS011;34770;49.272;11.070;2022-08-01T00:42:59;4.30;;;2.45;;
16029;SDS011;34770;49.272;11.070;2022-08-01T00:45:25;3.20;;;2.38;;
16029;SDS011;34770;49.272;11.070;2022-08-01T00:47:50;4.07;;;2.22;;
16029;SDS011;34770;49.272;11.070;2022-08-01T00:50:16;2.95;;;2.63;;
16029;SDS011;34770;49.272;11.070;2022-08-01T00:52:41;3.50;;;2.00;;
16029;SDS011;34770;49.272;11.070;2022-08-01T00:55:09;2.70;;;2.50;;
16029;SDS011;34770;49.272;11.070;2022-08-01T00:57:37;2.55;;;2.35;;
16029;SDS011;34770;49.272;11.070;2022-08-01T01:00:04;3.78;;;2.28;;
16029;SDS011;34770;49.272;11.070;2022-08-01T01:02:31;2.58;;;2.20;;
16029;SDS011;34770;49.272;11.070;2022-08-01T01:04:57;2.72;;;2.28;;
16029;SDS011;34770;49.272;11.070;2022-08-01T01:07:30;3.70;;;2.40;;
16029;SDS011;34770;49.272;11.070;2022-08-01T01:10:15;3.20;;;2.35;;
16029;SDS011;34770;49.272;11.070;2022-08-01T01:15:44;2.42;;;2.22;;
16029;SDS011;34770;49.272;11.070;2022-08-01T01:18:17;2.13;;;1.95;;
16029;SDS011;34770;49.272;11.070;2022-08-01T01:26:36;3.67;;;2.25;;
16029;SDS011;34770;49.272;11.070;2022-08-01T01:29:32;3.88;;;2.35;;
16029;SDS011;34770;49.272;11.070;2022-08-01T01:34:31;3.35;;;2.40;;
16029;SDS011;34770;49.272;11.070;2022-08-01T01:37:01;2.90;;;2.42;;
16029;SDS011;34770;49.272;11.070;2022-08-01T01:39:29;4.85;;;2.53;;
16029;SDS011;34770;49.272;11.070;2022-08-01T01:41:57;4.70;;;3.13;;
16029;SDS011;34770;49.272;11.070;2022-08-01T01:44:25;5.40;;;2.80;;
16029;SDS011;34770;49.272;11.070;2022-08-01T01:46:52;4.80;;;2.80;;
16029;SDS011;34770;49.272;11.070;2022-08-01T01:49:23;3.50;;;2.22;;
16029;SDS011;34770;49.272;11.070;2022-08-01T01:51:51;2.67;;;2.47;;
16029;SDS011;34770;49.272;11.070;2022-08-01T01:54:19;3.03;;;2.60;;
16029;SDS011;34770;49.272;11.070;2022-08-01T01:56:47;2.35;;;2.15;;
16029;SDS011;34770;49.272;11.070;2022-08-01T01:59:18;2.72;;;2.45;;
16029;SDS011;34770;49.272;11.070;2022-08-01T02:01:49;4.80;;;2.53;;
16029;SDS011;34770;49.272;11.070;2022-08-01T02:04:18;2.35;;;2.15;;
16029;SDS011;34770;49.272;11.070;2022-08-01T02:06:46;2.25;;;2.00;;
16029;SDS011;34770;49.272;11.070;2022-08-01T02:09:14;4.07;;;2.42;;
16029;SDS011;34770;49.272;11.070;2022-08-01T02:11:43;3.03;;;2.50;;
16029;SDS011;34770;49.272;11.070;2022-08-01T02:14:10;2.60;;;2.40;;
16029;SDS011;34770;49.272;11.070;2022-08-01T02:16:37;5.55;;;2.85;;
16029;SDS011;34770;49.272;11.070;2022-08-01T02:19:06;2.83;;;2.63;;
16029;SDS011;34770;49.272;11.070;2022-08-01T02:21:36;5.60;;;2.83;;
16029;SDS011;34770;49.272;11.070;2022-08-01T02:24:07;3.53;;;2.33;;
16029;SDS011;34770;49.272;11.070;2022-08-01T02:26:38;2.78;;;2.22;;
16029;SDS011;34770;49.272;11.070;2022-08-01T02:29:07;2.45;;;2.22;;
16029;SDS011;34770;49.272;11.070;2022-08-01T02:31:36;2.72;;;2.53;;
16029;SDS011;34770;49.272;11.070;2022-08-01T02:34:06;2.30;;;2.10;;
16029;SDS011;34770;49.272;11.070;2022-08-01T02:36:34;3.88;;;2.42;;
16029;SDS011;34770;49.272;11.070;2022-08-01T02:39:02;3.92;;;2.65;;
16029;SDS011;34770;49.272;11.070;2022-08-01T02:41:31;2.47;;;2.35;;
16029;SDS011;34770;49.272;11.070;2022-08-01T02:44:02;3.42;;;2.28;;
16029;SDS011;34770;49.272;11.070;2022-08-01T02:46:40;2.38;;;2.17;;
16029;SDS011;34770;49.272;11.070;2022-08-01T02:49:14;2.83;;;2.22;;
16029;SDS011;34770;49.272;11.070;2022-08-01T02:51:41;2.85;;;2.20;;
16029;SDS011;34770;49.272;11.070;2022-08-01T02:54:10;3.63;;;2.30;;
16029;SDS011;34770;49.272;11.070;2022-08-01T02:56:36;2.53;;;2.33;;
16029;SDS011;34770;49.272;11.070;2022-08-01T02:59:12;5.60;;;2.60;;
16029;SDS011;34770;49.272;11.070;2022-08-01T03:01:40;3.80;;;2.20;;
16029;SDS011;34770;49.272;11.070;2022-08-01T03:04:08;2.33;;;2.13;;
16029;SDS011;34770;49.272;11.070;2022-08-01T03:06:35;3.20;;;2.47;;
16029;SDS011;34770;49.272;11.070;2022-08-01T03:09:02;2.95;;;2.40;;
16029;SDS011;34770;49.272;11.070;2022-08-01T03:11:29;2.50;;;2.30;;
16029;SDS011;34770;49.272;11.070;2022-08-01T03:13:59;2.45;;;2.25;;
16029;SDS011;34770;49.272;11.070;2022-08-01T03:16:26;3.33;;;2.50;;
16029;SDS011;34770;49.272;11.070;2022-08-01T03:18:53;2.20;;;2.00;;
16029;SDS011;34770;49.272;11.070;2022-08-01T03:21:21;2.88;;;2.20;;
16029;SDS011;34770;49.272;11.070;2022-08-01T03:23:49;4.78;;;3.17;;
16029;SDS011;34770;49.272;11.070;2022-08-01T03:26:16;4.50;;;2.67;;
16029;SDS011;34770;49.272;11.070;2022-08-01T03:28:44;2.75;;;2.28;;
16029;SDS011;34770;49.272;11.070;2022-08-01T03:31:12;3.47;;;2.10;;
16029;SDS011;34770;49.272;11.070;2022-08-01T03:33:39;5.78;;;2.40;;
16029;SDS011;34770;49.272;11.070;2022-08-01T03:36:04;3.05;;;2.10;;
16029;SDS011;34770;49.272;11.070;2022-08-01T03:38:34;4.40;;;2.90;;
16029;SDS011;34770;49.272;11.070;2022-08-01T03:41:15;3.97;;;2.95;;
16029;SDS011;34770;49.272;11.070;2022-08-01T03:43:51;4.68;;;2.80;;
16029;SDS011;34770;49.272;11.070;2022-08-01T03:46:25;4.05;;;2.75;;
16029;SDS011;34770;49.272;11.070;2022-08-01T03:48:54;3.47;;;2.83;;
16029;SDS011;34770;49.272;11.070;2022-08-01T03:51:23;2.63;;;2.38;;
16029;SDS011;34770;49.272;11.070;2022-08-01T03:53:49;3.20;;;2.40;;
16029;SDS011;34770;49.272;11.070;2022-08-01T03:56:17;3.63;;;2.42;;
16029;SDS011;34770;49.272;11.070;2022-08-01T03:58:44;4.65;;;2.60;;
16029;SDS011;34770;49.272;11.070;2022-08-01T04:01:10;3.53;;;2.97;;
16029;SDS011;34770;49.272;11.070;2022-08-01T04:03:36;3.60;;;2.35;;
16029;SDS011;34770;49.272;11.070;2022-08-01T04:06:05;3.65;;;2.50;;
16029;SDS011;34770;49.272;11.070;2022-08-01T04:08:42;7.13;;;2.90;;
16029;SDS011;34770;49.272;11.070;2022-08-01T04:11:08;3.70;;;2.72;;
16029;SDS011;34770;49.272;11.070;2022-08-01T04:13:34;2.88;;;2.63;;
16029;SDS011;34770;49.272;11.070;2022-08-01T04:16:00;3.80;;;2.67;;
16029;SDS011;34770;49.272;11.070;2022-08-01T04:18:25;3.50;;;2.92;;
16029;SDS011;34770;49.272;11.070;2022-08-01T04:20:51;3.08;;;2.83;;
16029;SDS011;34770;49.272;11.070;2022-08-01T04:23:17;4.63;;;2.60;;
16029;SDS011;34770;49.272;11.070;2022-08-01T04:25:46;2.50;;;2.30;;
16029;SDS011;34770;49.272;11.070;2022-08-01T04:28:14;3.50;;;2.90;;
16029;SDS011;34770;49.272;11.070;2022-08-01T04:30:42;4.55;;;2.60;;
16029;SDS011;34770;49.272;11.070;2022-08-01T04:33:11;2.72;;;2.30;;
16029;SDS011;34770;49.272;11.070;2022-08-01T04:35:41;3.75;;;2.97;;
16029;SDS011;34770;49.272;11.070;2022-08-01T04:38:10;3.22;;;2.53;;
16029;SDS011;34770;49.272;11.070;2022-08-01T04:40:38;3.40;;;2.60;;
16029;SDS011;34770;49.272;11.070;2022-08-01T04:43:07;3.15;;;2.85;;
16029;SDS011;34770;49.272;11.070;2022-08-01T04:45:33;3.97;;;2.72;;
16029;SDS011;34770;49.272;11.070;2022-08-01T04:48:00;3.10;;;2.20;;
16029;SDS011;34770;49.272;11.070;2022-08-01T04:50:25;3.50;;;2.45;;
16029;SDS011;34770;49.272;11.070;2022-08-01T04:52:51;4.38;;;3.17;;
16029;SDS011;34770;49.272;11.070;2022-08-01T04:55:17;4.75;;;2.40;;
16029;SDS011;34770;49.272;11.070;2022-08-01T04:57:43;3.17;;;2.85;;
16029;SDS011;34770;49.272;11.070;2022-08-01T05:00:10;3.65;;;2.83;;
16029;SDS011;34770;49.272;11.070;2022-08-01T05:02:36;3.10;;;2.80;;
16029;SDS011;34770;49.272;11.070;2022-08-01T05:05:02;3.88;;;2.72;;
16029;SDS011;34770;49.272;11.070;2022-08-01T05:07:27;3.10;;;2.80;;
16029;SDS011;34770;49.272;11.070;2022-08-01T05:09:53;2.63;;;2.42;;
16029;SDS011;34770;49.272;11.070;2022-08-01T05:12:18;5.05;;;2.72;;
16029;SDS011;34770;49.272;11.070;2022-08-01T05:14:43;3.35;;;2.50;;
16029;SDS011;34770;49.272;11.070;2022-08-01T05:17:09;3.55;;;2.90;;
16029;SDS011;34770;49.272;11.070;2022-08-01T05:19:36;3.65;;;3.13;;
16029;SDS011;34770;49.272;11.070;2022-08-01T05:22:04;3.30;;;2.30;;
16029;SDS011;34770;49.272;11.070;2022-08-01T05:24:31;6.38;;;2.55;;
16029;SDS011;34770;49.272;11.070;2022-08-01T05:26:58;4.32;;;2.90;;
16029;SDS011;34770;49.272;11.070;2022-08-01T05:29:24;3.25;;;2.40;;
16029;SDS011;34770;49.272;11.070;2022-08-01T05:31:50;2.90;;;2.60;;
16029;SDS011;34770;49.272;11.070;2022-08-01T05:34:16;3.30;;;2.58;;
16029;SDS011;34770;49.272;11.070;2022-08-01T05:36:42;3.70;;;2.60;;
16029;SDS011;34770;49.272;11.070;2022-08-01T05:39:07;2.97;;;2.67;;
16029;SDS011;34770;49.272;11.070;2022-08-01T05:41:33;3.40;;;2.70;;
16029;SDS011;34770;49.272;11.070;2022-08-01T05:43:58;3.10;;;2.80;;
16029;SDS011;34770;49.272;11.070;2022-08-01T05:46:25;3.35;;;2.60;;
16029;SDS011;34770;49.272;11.070;2022-08-01T05:48:50;3.25;;;2.83;;
16029;SDS011;34770;49.272;11.070;2022-08-01T05:51:16;5.13;;;2.58;;
16029;SDS011;34770;49.272;11.070;2022-08-01T05:53:41;2.63;;;2.20;;
16029;SDS011;34770;49.272;11.070;2022-08-01T05:56:06;6.07;;;3.05;;
16029;SDS011;34770;49.272;11.070;2022-08-01T05:58:32;5.05;;;2.50;;
16029;SDS011;34770;49.272;11.070;2022-08-01T06:00:57;2.58;;;2.38;;
16029;SDS011;34770;49.272;11.070;2022-08-01T06:03:23;2.90;;;2.03;;
16029;SDS011;34770;49.272;11.070;2022-08-01T06:05:49;5.72;;;2.67;;
16029;SDS011;34770;49.272;11.070;2022-08-01T06:08:15;3.70;;;2.50;;
16029;SDS011;34770;49.272;11.070;2022-08-01T06:10:41;4.90;;;2.90;;
16029;SDS011;34770;49.272;11.070;2022-08-01T06:13:06;3.92;;;3.28;;
16029;SDS011;34770;49.272;11.070;2022-08-01T06:15:32;3.28;;;2.60;;
16029;SDS011;34770;49.272;11.070;2022-08-01T06:17:57;4.72;;;2.40;;
16029;SDS011;34770;49.272;11.070;2022-08-01T06:20:22;3.60;;;2.72;;
16029;SDS011;34770;49.272;11.070;2022-08-01T06:22:48;3.17;;;2.88;;
16029;SDS011;34770;49.272;11.070;2022-08-01T06:25:13;3.35;;;2.30;;
16029;SDS011;34770;49.272;11.070;2022-08-01T06:27:39;3.33;;;2.35;;
16029;SDS011;34770;49.272;11.070;2022-08-01T06:30:04;3.10;;;2.60;;
16029;SDS011;34770;49.272;11.070;2022-08-01T06:32:32;2.97;;;2.63;;
16029;SDS011;34770;49.272;11.070;2022-08-01T06:34:57;4.95;;;2.28;;
16029;SDS011;34770;49.272;11.070;2022-08-01T06:37:23;2.10;;;1.90;;
16029;SDS011;34770;49.272;11.070;2022-08-01T06:39:48;4.22;;;2.67;;
16029;SDS011;34770;49.272;11.070;2022-08-01T06:42:14;2.40;;;2.20;;
16029;SDS011;34770;49.272;11.070;2022-08-01T06:44:40;2.92;;;2.50;;
16029;SDS011;34770;49.272;11.070;2022-08-01T06:47:06;3.83;;;2.00;;
16029;SDS011;34770;49.272;11.070;2022-08-01T06:49:32;3.03;;;2.10;;
16029;SDS011;34770;49.272;11.070;2022-08-01T06:51:57;4.28;;;2.25;;
16029;SDS011;34770;49.272;11.070;2022-08-01T06:54:22;6.18;;;2.80;;
16029;SDS011;34770;49.272;11.070;2022-08-01T06:56:48;4.13;;;2.17;;
16029;SDS011;34770;49.272;11.070;2022-08-01T06:59:13;4.50;;;1.90;;
16029;SDS011;34770;49.272;11.070;2022-08-01T07:01:39;2.65;;;2.25;;
16029;SDS011;34770;49.272;11.070;2022-08-01T07:04:04;2.58;;;2.38;;
16029;SDS011;34770;49.272;11.070;2022-08-01T07:06:30;2.47;;;1.95;;
16029;SDS011;34770;49.272;11.070;2022-08-01T07:08:55;3.80;;;1.90;;
16029;SDS011;34770;49.272;11.070;2022-08-01T07:11:21;2.05;;;1.80;;
16029;SDS011;34770;49.272;11.070;2022-08-01T07:13:48;1.80;;;1.70;;
16029;SDS011;34770;49.272;11.070;2022-08-01T07:16:14;2.88;;;1.80;;
16029;SDS011;34770;49.272;11.070;2022-08-01T07:18:40;2.10;;;1.88;;
16029;SDS011;34770;49.272;11.070;2022-08-01T07:21:06;6.20;;;2.45;;
16029;SDS011;34770;49.272;11.070;2022-08-01T07:23:32;3.28;;;2.10;;
16029;SDS011;34770;49.272;11.070;2022-08-01T07:25:57;2.33;;;1.98;;
16029;SDS011;34770;49.272;11.070;2022-08-01T07:28:23;2.25;;;2.05;;
16029;SDS011;34770;49.272;11.070;2022-08-01T07:30:49;2.03;;;1.80;;
16029;SDS011;34770;49.272;11.070;2022-08-01T07:33:14;3.30;;;1.60;;
16029;SDS011;34770;49.272;11.070;2022-08-01T07:35:40;2.63;;;2.03;;
16029;SDS011;34770;49.272;11.070;2022-08-01T07:38:07;2.03;;;1.88;;
16029;SDS011;34770;49.272;11.070;2022-08-01T07:40:33;1.80;;;1.70;;
16029;SDS011;34770;49.272;11.070;2022-08-01T07:42:58;3.45;;;1.80;;
16029;SDS011;34770;49.272;11.070;2022-08-01T07:45:23;1.83;;;1.73;;
16029;SDS011;34770;49.272;11.070;2022-08-01T07:47:49;5.00;;;1.98;;
16029;SDS011;34770;49.272;11.070;2022-08-01T07:50:14;4.00;;;2.15;;
16029;SDS011;34770;49.272;11.070;2022-08-01T07:52:41;3.28;;;2.13;;
16029;SDS011;34770;49.272;11.070;2022-08-01T07:55:07;2.10;;;1.90;;
16029;SDS011;34770;49.272;11.070;2022-08-01T07:57:34;3.28;;;2.08;;
16029;SDS011;34770;49.272;11.070;2022-08-01T07:59:59;4.43;;;2.13;;
16029;SDS011;34770;49.272;11.070;2022-08-01T08:02:25;2.47;;;1.73;;
16029;SDS011;34770;49.272;11.070;2022-08-01T08:04:50;3.22;;;1.70;;
16029;SDS011;34770;49.272;11.070;2022-08-01T08:07:16;2.05;;;1.85;;
16029;SDS011;34770;49.272;11.070;2022-08-01T08:09:41;2.30;;;1.75;;
16029;SDS011;34770;49.272;11.070;2022-08-01T08:12:07;2.95;;;1.60;;
16029;SDS011;34770;49.272;11.070;2022-08-01T08:14:32;2.78;;;1.52;;
16029;SDS011;34770;49.272;11.070;2022-08-01T08:16:58;2.95;;;1.65;;
16029;SDS011;34770;49.272;11.070;2022-08-01T08:19:24;3.50;;;2.00;;
16029;SDS011;34770;49.272;11.070;2022-08-01T08:21:49;1.65;;;1.40;;
16029;SDS011;34770;49.272;11.070;2022-08-01T08:24:15;1.65;;;1.27;;
16029;SDS011;34770;49.272;11.070;2022-08-01T08:26:50;5.03;;;1.63;;
16029;SDS011;34770;49.272;11.070;2022-08-01T08:29:18;2.25;;;1.23;;
16029;SDS011;34770;49.272;11.070;2022-08-01T08:31:44;1.92;;;1.83;;
16029;SDS011;34770;49.272;11.070;2022-08-01T08:34:10;3.22;;;1.42;;
16029;SDS011;34770;49.272;11.070;2022-08-01T08:36:35;2.58;;;1.58;;
16029;SDS011;34770;49.272;11.070;2022-08-01T08:39:01;1.95;;;1.80;;
16029;SDS011;34770;49.272;11.070;2022-08-01T08:41:27;2.72;;;1.50;;
16029;SDS011;34770;49.272;11.070;2022-08-01T08:43:53;4.15;;;1.65;;
16029;SDS011;34770;49.272;11.070;2022-08-01T08:46:19;1.88;;;1.60;;
16029;SDS011;34770;49.272;11.070;2022-08-01T08:48:45;3.92;;;2.13;;
16029;SDS011;34770;49.272;11.070;2022-08-01T08:51:11;2.15;;;1.42;;
16029;SDS011;34770;49.272;11.070;2022-08-01T08:53:39;2.63;;;2.33;;
16029;SDS011;34770;49.272;11.070;2022-08-01T08:56:08;2.33;;;1.70;;
16029;SDS011;34770;49.272;11.070;2022-08-01T08:58:36;2.47;;;1.33;;
16029;SDS011;34770;49.272;11.070;2022-08-01T09:01:06;1.38;;;1.27;;
16029;SDS011;34770;49.272;11.070;2022-08-01T09:03:33;2.15;;;1.40;;
16029;SDS011;34770;49.272;11.070;2022-08-01T09:05:59;2.15;;;1.42;;
16029;SDS011;34770;49.272;11.070;2022-08-01T09:08:25;2.17;;;1.40;;
16029;SDS011;34770;49.272;11.070;2022-08-01T09:10:50;1.45;;;1.35;;
16029;SDS011;34770;49.272;11.070;2022-08-01T09:13:16;1.42;;;1.25;;
16029;SDS011;34770;49.272;11.070;2022-08-01T09:15:48;1.10;;;1.00;;
16029;SDS011;34770;49.272;11.070;2022-08-01T09:18:25;1.90;;;1.20;;
16029;SDS011;34770;49.272;11.070;2022-08-01T09:23:40;2.25;;;1.10;;
16029;SDS011;34770;49.272;11.070;2022-08-01T09:26:11;2.13;;;1.60;;
16029;SDS011;34770;49.272;11.070;2022-08-01T09:28:38;1.65;;;1.30;;
16029;SDS011;34770;49.272;11.070;2022-08-01T09:31:07;1.98;;;1.20;;
16029;SDS011;34770;49.272;11.070;2022-08-01T09:36:15;1.27;;;1.00;;
16029;SDS011;34770;49.272;11.070;2022-08-01T09:38:41;1.58;;;1.48;;
16029;SDS011;34770;49.272;11.070;2022-08-01T09:41:06;1.80;;;1.15;;
16029;SDS011;34770;49.272;11.070;2022-08-01T09:43:32;2.13;;;1.23;;
16029;SDS011;34770;49.272;11.070;2022-08-01T09:46:11;1.38;;;1.27;;
16029;SDS011;34770;49.272;11.070;2022-08-01T09:48:37;1.13;;;0.98;;
16029;SDS011;34770;49.272;11.070;2022-08-01T09:51:04;1.08;;;0.85;;
16029;SDS011;34770;49.272;11.070;2022-08-01T09:53:46;2.45;;;1.02;;
16029;SDS011;34770;49.272;11.070;2022-08-01T09:56:13;1.25;;;1.00;;
16029;SDS011;34770;49.272;11.070;2022-08-01T09:58:51;0.80;;;0.80;;
16029;SDS011;34770;49.272;11.070;2022-08-01T10:01:16;2.10;;;1.45;;
16029;SDS011;34770;49.272;11.070;2022-08-01T10:03:49;2.38;;;1.02;;
16029;SDS011;34770;49.272;11.070;2022-08-01T10:06:33;3.35;;;1.30;;
16029;SDS011;34770;49.272;11.070;2022-08-01T10:08:58;1.30;;;1.05;;
16029;SDS011;34770;49.272;11.070;2022-08-01T10:11:23;3.53;;;1.33;;
16029;SDS011;34770;49.272;11.070;2022-08-01T10:13:49;2.30;;;1.10;;
16029;SDS011;34770;49.272;11.070;2022-08-01T10:16:15;1.50;;;1.40;;
16029;SDS011;34770;49.272;11.070;2022-08-01T10:18:41;2.47;;;1.27;;
16029;SDS011;34770;49.272;11.070;2022-08-01T10:21:07;1.30;;;1.10;;
16029;SDS011;34770;49.272;11.070;2022-08-01T10:23:34;2.10;;;1.30;;
16029;SDS011;34770;49.272;11.070;2022-08-01T10:26:01;1.30;;;0.82;;
16029;SDS011;34770;49.272;11.070;2022-08-01T10:28:29;2.55;;;0.80;;
16029;SDS011;34770;49.272;11.070;2022-08-01T10:30:58;1.58;;;0.90;;
16029;SDS011;34770;49.272;11.070;2022-08-01T10:33:25;2.40;;;1.20;;
16029;SDS011;34770;49.272;11.070;2022-08-01T10:35:50;1.27;;;1.00;;
16029;SDS011;34770;49.272;11.070;2022-08-01T10:38:16;1.13;;;1.00;;
16029;SDS011;34770;49.272;11.070;2022-08-01T10:40:42;0.98;;;0.80;;
16029;SDS011;34770;49.272;11.070;2022-08-01T10:43:12;0.95;;;0.80;;
16029;SDS011;34770;49.272;11.070;2022-08-01T10:45:41;0.80;;;0.80;;
16029;SDS011;34770;49.272;11.070;2022-08-01T10:48:22;2.22;;;1.08;;
16029;SDS011;34770;49.272;11.070;2022-08-01T10:50:55;1.10;;;1.00;;
16029;SDS011;34770;49.272;11.070;2022-08-01T10:53:25;1.05;;;0.90;;
16029;SDS011;34770;49.272;11.070;2022-08-01T11:09:02;1.65;;;1.25;;
16029;SDS011;34770;49.272;11.070;2022-08-01T11:14:23;1.30;;;0.95;;
16029;SDS011;34770;49.272;11.070;2022-08-01T11:16:49;1.25;;;0.80;;
16029;SDS011;34770;49.272;11.070;2022-08-01T11:19:14;1.05;;;0.80;;
16029;SDS011;34770;49.272;11.070;2022-08-01T11:27:23;1.20;;;1.00;;
16029;SDS011;34770;49.272;11.070;2022-08-01T11:32:49;1.85;;;0.60;;
16029;SDS011;34770;49.272;11.070;2022-08-01T11:35:15;1.02;;;0.60;;
16029;SDS011;34770;49.272;11.070;2022-08-01T11:37:42;1.13;;;0.75;;
16029;SDS011;34770;49.272;11.070;2022-08-01T11:40:21;2.20;;;0.70;;
16029;SDS011;34770;49.272;11.070;2022-08-01T11:42:49;1.83;;;1.05;;
16029;SDS011;34770;49.272;11.070;2022-08-01T11:45:46;0.65;;;0.65;;
16029;SDS011;34770;49.272;11.070;2022-08-01T11:48:21;0.70;;;0.70;;
16029;SDS011;34770;49.272;11.070;2022-08-01T11:50:51;0.70;;;0.60;;
16029;SDS011;34770;49.272;11.070;2022-08-01T11:53:18;0.55;;;0.50;;
16029;SDS011;34770;49.272;11.070;2022-08-01T11:55:51;0.65;;;0.52;;
16029;SDS011;34770;49.272;11.070;2022-08-01T11:58:22;0.60;;;0.60;;
16029;SDS011;34770;49.272;11.070;2022-08-01T12:00:52;0.63;;;0.60;;
16029;SDS011;34770;49.272;11.070;2022-08-01T12:03:23;1.67;;;0.70;;
16029;SDS011;34770;49.272;11.070;2022-08-01T12:05:52;1.10;;;0.68;;
16029;SDS011;34770;49.272;11.070;2022-08-01T12:08:27;2.20;;;0.65;;
16029;SDS011;34770;49.272;11.070;2022-08-01T12:10:54;1.02;;;0.68;;
16029;SDS011;34770;49.272;11.070;2022-08-01T12:13:20;1.90;;;0.70;;
16029;SDS011;34770;49.272;11.070;2022-08-01T12:15:46;4.47;;;0.90;;
16029;SDS011;34770;49.272;11.070;2022-08-01T12:18:12;0.60;;;0.60;;
16029;SDS011;34770;49.272;11.070;2022-08-01T12:20:39;1.10;;;0.70;;
16029;SDS011;34770;49.272;11.070;2022-08-01T12:23:08;2.30;;;0.60;;
16029;SDS011;34770;49.272;11.070;2022-08-01T12:25:36;0.95;;;0.80;;
16029;SDS011;34770;49.272;11.070;2022-08-01T12:28:04;0.60;;;0.60;;
16029;SDS011;34770;49.272;11.070;2022-08-01T12:30:32;2.22;;;0.82;;
16029;SDS011;34770;49.272;11.070;2022-08-01T12:33:02;0.93;;;0.75;;
16029;SDS011;34770;49.272;11.070;2022-08-01T12:35:29;0.45;;;0.45;;
16029;SDS011;34770;49.272;11.070;2022-08-01T12:37:55;0.88;;;0.80;;
16029;SDS011;34770;49.272;11.070;2022-08-01T12:40:24;1.15;;;0.60;;
16029;SDS011;34770;49.272;11.070;2022-08-01T12:42:52;1.15;;;0.65;;
16029;SDS011;34770;49.272;11.070;2022-08-01T12:45:21;0.63;;;0.60;;
16029;SDS011;34770;49.272;11.070;2022-08-01T12:47:49;2.05;;;0.60;;
16029;SDS011;34770;49.272;11.070;2022-08-01T12:50:18;2.28;;;0.80;;
16029;SDS011;34770;49.272;11.070;2022-08-01T12:52:46;0.40;;;0.40;;
16029;SDS011;34770;49.272;11.070;2022-08-01T12:57:39;0.82;;;0.77;;
16029;SDS011;34770;49.272;11.070;2022-08-01T13:02:33;2.28;;;0.60;;
16029;SDS011;34770;49.272;11.070;2022-08-01T13:04:59;0.65;;;0.47;;
16029;SDS011;34770;49.272;11.070;2022-08-01T13:10:04;0.60;;;0.60;;
16029;SDS011;34770;49.272;11.070;2022-08-01T13:12:30;1.67;;;0.80;;
16029;SDS011;34770;49.272;11.070;2022-08-01T13:14:56;0.93;;;0.70;;
16029;SDS011;34770;49.272;11.070;2022-08-01T13:17:31;0.95;;;0.70;;
16029;SDS011;34770;49.272;11.070;2022-08-01T13:19:58;0.95;;;0.82;;
16029;SDS011;34770;49.272;11.070;2022-08-01T13:22:33;2.85;;;0.70;;
16029;SDS011;34770;49.272;11.070;2022-08-01T13:25:12;0.90;;;0.70;;
16029;SDS011;34770;49.272;11.070;2022-08-01T13:27:38;1.58;;;0.70;;
16029;SDS011;34770;49.272;11.070;2022-08-01T13:30:14;2.13;;;0.73;;
16029;SDS011;34770;49.272;11.070;2022-08-01T13:32:41;1.15;;;0.70;;
16029;SDS011;34770;49.272;11.070;2022-08-01T13:35:11;0.82;;;0.75;;
16029;SDS011;34770;49.272;11.070;2022-08-01T13:37:41;0.52;;;0.50;;
16029;SDS011;34770;49.272;11.070;2022-08-01T13:40:08;2.25;;;0.80;;
16029;SDS011;34770;49.272;11.070;2022-08-01T13:42:34;0.60;;;0.60;;
16029;SDS011;34770;49.272;11.070;2022-08-01T13:45:01;1.25;;;0.50;;
16029;SDS011;34770;49.272;11.070;2022-08-01T13:47:28;1.15;;;0.60;;
16029;SDS011;34770;49.272;11.070;2022-08-01T13:49:54;0.50;;;0.50;;
16029;SDS011;34770;49.272;11.070;2022-08-01T13:52:19;0.60;;;0.60;;
16029;SDS011;34770;49.272;11.070;2022-08-01T13:54:45;1.25;;;0.80;;
16029;SDS011;34770;49.272;11.070;2022-08-01T13:57:10;1.83;;;0.60;;
16029;SDS011;34770;49.272;11.070;2022-08-01T13:59:35;0.80;;;0.80;;
16029;SDS011;34770;49.272;11.070;2022-08-01T14:02:01;1.00;;;0.70;;
16029;SDS011;34770;49.272;11.070;2022-08-01T14:04:26;1.42;;;0.95;;
16029;SDS011;34770;49.272;11.070;2022-08-01T14:06:52;0.60;;;0.60;;
16029;SDS011;34770;49.272;11.070;2022-08-01T14:09:18;0.77;;;0.77;;
16029;SDS011;34770;49.272;11.070;2022-08-01T14:11:44;0.82;;;0.80;;
16029;SDS011;34770;49.272;11.070;2022-08-01T14:14:10;0.93;;;0.93;;
16029;SDS011;34770;49.272;11.070;2022-08-01T14:16:35;0.80;;;0.70;;
16029;SDS011;34770;49.272;11.070;2022-08-01T14:19:02;3.50;;;0.57;;
16029;SDS011;34770;49.272;11.070;2022-08-01T14:21:28;1.00;;;0.88;;
16029;SDS011;34770;49.272;11.070;2022-08-01T14:23:53;2.10;;;0.82;;
16029;SDS011;34770;49.272;11.070;2022-08-01T14:26:19;1.58;;;0.98;;
16029;SDS011;34770;49.272;11.070;2022-08-01T14:28:44;4.32;;;0.93;;
16029;SDS011;34770;49.272;11.070;2022-08-01T14:31:10;2.65;;;0.85;;
16029;SDS011;34770;49.272;11.070;2022-08-01T14:33:35;0.80;;;0.80;;
16029;SDS011;34770;49.272;11.070;2022-08-01T14:36:01;0.70;;;0.70;;
16029;SDS011;34770;49.272;11.070;2022-08-01T14:38:27;0.60;;;0.60;;
16029;SDS011;34770;49.272;11.070;2022-08-01T14:40:52;0.90;;;0.70;;
16029;SDS011;34770;49.272;11.070;2022-08-01T14:43:18;0.73;;;0.57;;
16029;SDS011;34770;49.272;11.070;2022-08-01T14:45:44;0.70;;;0.70;;
16029;SDS011;34770;49.272;11.070;2022-08-01T14:48:09;0.93;;;0.90;;
16029;SDS011;34770;49.272;11.070;2022-08-01T14:50:35;0.95;;;0.82;;
16029;SDS011;34770;49.272;11.070;2022-08-01T14:53:00;1.85;;;0.85;;
16029;SDS011;34770;49.272;11.070;2022-08-01T14:55:26;1.13;;;0.70;;
16029;SDS011;34770;49.272;11.070;2022-08-01T14:57:52;4.82;;;0.75;;
16029;SDS011;34770;49.272;11.070;2022-08-01T15:00:18;0.50;;;0.50;;
16029;SDS011;34770;49.272;11.070;2022-08-01T15:02:43;0.90;;;0.88;;
16029;SDS011;34770;49.272;11.070;2022-08-01T15:05:09;2.42;;;1.00;;
16029;SDS011;34770;49.272;11.070;2022-08-01T15:07:35;0.77;;;0.77;;
16029;SDS011;34770;49.272;11.070;2022-08-01T15:10:02;1.42;;;0.63;;
16029;SDS011;34770;49.272;11.070;2022-08-01T15:12:28;0.60;;;0.50;;
16029;SDS011;34770;49.272;11.070;2022-08-01T15:14:53;1.00;;;0.70;;
16029;SDS011;34770;49.272;11.070;2022-08-01T15:17:20;0.82;;;0.73;;
16029;SDS011;34770;49.272;11.070;2022-08-01T15:19:48;0.70;;;0.63;;
16029;SDS011;34770;49.272;11.070;2022-08-01T15:22:16;3.88;;;0.70;;
16029;SDS011;34770;49.272;11.070;2022-08-01T15:24:42;0.75;;;0.70;;